Terminal Aerodrome Forecast
Issued by NWS

Home | Current Version | Previous Version | Text Only | Print | Product List | Glossary On
Versions: 1 2 3 4 5 6 7 8 9 10 11 12
000
FTUS42 TJSJ 221728
TAFIST
TAF
TIST 221728Z 2218/2318 11010G18KT P6SM FEW030
     FM222300 08007KT P6SM FEW030
     FM231400 10010KT P6SM FEW030=

USA.gov is the U.S. government's official web portal to all federal, state and local government web resources and services.